Time;durP1;ratioP1;P1;durP2;ratioP2;P2;SDS_P1;SDS_P2;PMS_P1;PMS_P2;Temp;Humidity;BMP_temperature;BMP_pressure;BME280_temperature;BME280_humidity;BME280_pressure;Samples;Min_cycle;Max_cycle;Signal;HPM_P1;HPM_P2
2022/10/17 00:01:25;;;;;;;29.52;20.75;;;;;;;15.31;100.00;99518.00;5002943;28;20069;-61
2022/10/17 00:03:51;;;;;;;30.60;22.25;;;;;;;15.29;100.00;99501.63;5012572;28;20033;-59
2022/10/17 00:06:16;;;;;;;28.92;20.42;;;;;;;15.11;100.00;99491.19;5009870;28;20039;-60
2022/10/17 00:08:42;;;;;;;29.42;20.83;;;;;;;15.25;100.00;99521.25;5011516;28;20033;-61
2022/10/17 00:11:15;;;;;;;27.75;19.88;;;;;;;15.30;100.00;99526.03;5007733;28;20048;-61
2022/10/17 00:13:41;;;;;;;28.38;19.70;;;;;;;15.29;100.00;99525.19;4994904;28;20702;-60
2022/10/17 00:16:07;;;;;;;31.08;21.25;;;;;;;15.26;100.00;99528.13;4992985;28;20480;-59
2022/10/17 00:18:32;;;;;;;25.40;18.88;;;;;;;15.29;100.00;99530.44;5009349;28;20041;-59
2022/10/17 00:20:57;;;;;;;26.58;19.15;;;;;;;15.37;100.00;99532.31;5000540;28;20037;-60
2022/10/17 00:23:23;;;;;;;28.10;19.27;;;;;;;15.38;100.00;99526.09;5001771;28;20021;-58
2022/10/17 00:26:02;;;;;;;28.30;19.67;;;;;;;15.23;100.00;99511.91;5014748;28;20601;-59
2022/10/17 00:28:28;;;;;;;28.15;19.30;;;;;;;15.36;100.00;99544.56;5012051;28;20038;-59
2022/10/17 00:31:04;;;;;;;26.60;19.27;;;;;;;15.43;100.00;99541.34;5011307;28;20037;-59
2022/10/17 00:33:31;;;;;;;29.45;19.90;;;;;;;15.12;100.00;99510.34;5001410;28;20781;-60
2022/10/17 00:36:03;;;;;;;25.70;18.83;;;;;;;15.38;100.00;99547.84;5004910;28;20116;-59
2022/10/17 00:38:28;;;;;;;23.95;18.20;;;;;;;15.33;100.00;99539.66;5006589;28;20044;-59
2022/10/17 00:40:54;;;;;;;27.02;17.50;;;;;;;15.28;100.00;99554.19;5012806;28;20072;-59
2022/10/17 00:43:19;;;;;;;26.13;18.88;;;;;;;15.29;100.00;99543.53;5008517;28;20121;-60
2022/10/17 00:45:44;;;;;;;24.92;18.60;;;;;;;15.08;100.00;99516.88;5005196;28;20038;-59
2022/10/17 00:48:10;;;;;;;27.67;18.48;;;;;;;15.23;100.00;99545.97;5011623;28;20112;-59
2022/10/17 00:50:39;;;;;;;28.08;18.35;;;;;;;15.30;100.00;99547.00;5012922;28;20029;-61
2022/10/17 00:53:05;;;;;;;25.30;18.80;;;;;;;15.26;100.00;99545.63;4986713;28;20057;-60
2022/10/17 00:55:32;;;;;;;25.92;17.98;;;;;;;15.22;100.00;99552.97;5011510;28;20033;-59
2022/10/17 00:57:59;;;;;;;26.05;18.33;;;;;;;15.23;100.00;99541.53;5005830;28;20110;-59
2022/10/17 01:00:25;;;;;;;26.17;18.38;;;;;;;15.26;100.00;99556.13;5009249;28;20112;-59
2022/10/17 01:02:51;;;;;;;27.77;17.42;;;;;;;15.24;100.00;99550.22;5014260;28;20030;-60
2022/10/17 01:05:17;;;;;;;25.05;17.75;;;;;;;15.26;100.00;99553.50;5014398;28;20037;-58
2022/10/17 01:07:43;;;;;;;25.65;17.80;;;;;;;15.26;100.00;99550.88;5003899;28;20030;-59
2022/10/17 01:10:09;;;;;;;26.92;18.15;;;;;;;15.29;100.00;99548.78;4995336;28;20539;-59
2022/10/17 01:13:08;;;;;;;23.20;17.25;;;;;;;15.18;100.00;99552.44;5003206;28;20199;-59
2022/10/17 01:15:51;;;;;;;23.23;17.38;;;;;;;15.25;100.00;99551.88;4999163;28;20041;-59
2022/10/17 01:18:26;;;;;;;22.48;16.65;;;;;;;15.20;100.00;99547.06;5007180;28;20065;-58
2022/10/17 01:21:24;;;;;;;23.17;17.58;;;;;;;15.22;100.00;99549.53;5007514;28;20041;-59
2022/10/17 01:24:02;;;;;;;25.63;17.25;;;;;;;15.21;100.00;99543.47;4993300;28;20041;-60
2022/10/17 01:26:46;;;;;;;20.92;16.00;;;;;;;14.87;100.00;99502.28;5005018;28;20053;-59
2022/10/17 01:29:15;;;;;;;26.48;17.55;;;;;;;14.91;100.00;99494.94;5011927;28;20041;-59
2022/10/17 01:32:03;;;;;;;23.38;16.80;;;;;;;15.07;100.00;99547.44;5013374;28;20084;-61
2022/10/17 01:34:37;;;;;;;24.13;17.20;;;;;;;15.05;100.00;99533.69;5009935;28;20083;-59
2022/10/17 01:37:28;;;;;;;26.45;17.15;;;;;;;14.96;100.00;99537.22;5009212;28;20036;-59
2022/10/17 01:40:02;;;;;;;23.33;16.98;;;;;;;14.89;100.00;99533.53;5003087;28;20510;-59
2022/10/17 01:42:36;;;;;;;23.50;16.55;;;;;;;14.94;100.00;99528.69;5020054;28;20037;-60
2022/10/17 01:45:27;;;;;;;21.58;16.08;;;;;;;14.99;100.00;99540.34;5004876;28;20022;-59
2022/10/17 01:47:53;;;;;;;25.90;17.73;;;;;;;15.06;100.00;99524.88;5012627;28;20645;-59
2022/10/17 01:50:23;;;;;;;24.95;17.20;;;;;;;14.78;100.00;99488.31;5009093;28;20079;-60
2022/10/17 01:52:54;;;;;;;23.63;17.05;;;;;;;14.95;100.00;99531.16;5020041;28;20060;-59
2022/10/17 01:55:35;;;;;;;22.35;17.20;;;;;;;14.65;100.00;99481.78;5007592;28;20034;-58
2022/10/17 01:58:10;;;;;;;28.58;16.98;;;;;;;14.94;100.00;99523.44;5010856;28;20065;-59
2022/10/17 02:00:37;;;;;;;24.90;16.45;;;;;;;14.91;100.00;99527.22;5024115;28;20136;-60
2022/10/17 02:03:06;;;;;;;21.80;16.58;;;;;;;14.69;100.00;99496.22;5006811;28;20075;-61
2022/10/17 02:05:38;;;;;;;23.60;16.63;;;;;;;14.83;100.00;99521.06;5014173;28;20087;-60
2022/10/17 02:08:04;;;;;;;21.45;16.05;;;;;;;14.64;100.00;99485.38;4998010;28;20036;-61
2022/10/17 02:11:03;;;;;;;24.25;16.70;;;;;;;14.89;100.00;99530.94;4998995;28;20404;-60
2022/10/17 02:13:40;;;;;;;21.23;15.37;;;;;;;14.87;100.00;99528.47;5016121;28;20045;-61
2022/10/17 02:16:24;;;;;;;24.33;17.17;;;;;;;14.86;100.00;99516.34;4998674;28;20030;-61
2022/10/17 02:18:55;;;;;;;21.10;16.35;;;;;;;14.94;100.00;99523.44;5005715;28;20037;-60
2022/10/17 02:21:44;;;;;;;24.65;16.17;;;;;;;14.92;100.00;99528.03;5012137;28;20182;-61
2022/10/17 02:24:36;;;;;;;24.80;16.05;;;;;;;14.83;100.00;99521.06;5009173;28;20037;-60
2022/10/17 02:27:12;;;;;;;22.02;14.68;;;;;;;14.90;100.00;99522.13;4999018;28;20046;-60
2022/10/17 02:29:56;;;;;;;21.90;15.82;;;;;;;14.89;100.00;99515.22;5005445;28;20026;-61
2022/10/17 02:32:36;;;;;;;25.98;16.20;;;;;;;14.88;100.00;99516.22;5011069;28;20115;-60
2022/10/17 02:35:02;;;;;;;22.67;15.68;;;;;;;14.74;100.00;99491.38;4996358;28;20095;-61
2022/10/17 02:37:30;;;;;;;23.55;16.42;;;;;;;14.66;100.00;99484.28;5008952;28;20034;-61
2022/10/17 02:39:57;;;;;;;22.48;16.40;;;;;;;14.89;100.00;99525.69;4997189;28;20041;-60
2022/10/17 02:42:23;;;;;;;22.52;15.25;;;;;;;14.74;100.00;99523.59;5009655;28;20542;-61
2022/10/17 02:44:49;;;;;;;24.85;16.42;;;;;;;14.72;100.00;99535.19;5036760;28;20476;-61
2022/10/17 02:47:28;;;;;;;20.95;15.25;;;;;;;14.73;100.00;99531.59;5013159;28;20041;-60
2022/10/17 02:49:55;;;;;;;21.38;15.48;;;;;;;14.84;100.00;99534.00;5006837;28;20033;-60
2022/10/17 02:52:43;;;;;;;22.42;15.13;;;;;;;14.78;100.00;99543.28;5009760;28;20083;-61
2022/10/17 02:55:16;;;;;;;21.05;15.70;;;;;;;14.53;100.00;99510.78;5005465;28;20041;-60
2022/10/17 02:57:50;;;;;;;21.27;15.05;;;;;;;14.77;100.00;99544.25;4991465;28;20044;-61
2022/10/17 03:00:17;;;;;;;20.95;15.55;;;;;;;14.54;100.00;99503.75;5008921;28;20095;-60
2022/10/17 03:02:43;;;;;;;21.05;15.02;;;;;;;14.78;100.00;99550.31;5012367;28;20106;-61
2022/10/17 03:05:10;;;;;;;20.70;14.52;;;;;;;14.62;100.00;99514.34;4997040;28;20038;-62
2022/10/17 03:07:35;;;;;;;22.45;14.50;;;;;;;14.88;100.00;99553.69;5009333;28;20025;-60
2022/10/17 03:10:01;;;;;;;20.65;15.07;;;;;;;14.90;100.00;99553.53;4994789;28;20030;-60
2022/10/17 03:12:26;;;;;;;21.10;14.82;;;;;;;14.60;100.00;99506.63;5008928;28;20040;-61
2022/10/17 03:14:54;;;;;;;20.42;14.40;;;;;;;14.87;100.00;99544.16;5008036;28;20060;-60
2022/10/17 03:17:19;;;;;;;20.98;15.02;;;;;;;14.88;100.00;99551.06;5007963;28;20512;-60
2022/10/17 03:19:45;;;;;;;28.27;15.27;;;;;;;14.89;100.00;99557.94;5013646;28;20033;-60
2022/10/17 03:22:10;;;;;;;22.27;15.55;;;;;;;14.88;100.00;99560.72;5001161;28;20101;-61
2022/10/17 03:24:35;;;;;;;20.88;14.90;;;;;;;14.72;100.00;99543.88;5008245;28;20033;-59
2022/10/17 03:27:01;;;;;;;24.48;15.80;;;;;;;14.51;100.00;99514.50;5002900;28;20435;-61
2022/10/17 03:29:26;;;;;;;19.60;14.90;;;;;;;14.75;100.00;99561.91;5013230;28;20034;-60
2022/10/17 03:31:51;;;;;;;20.17;14.50;;;;;;;14.71;100.00;99560.56;5011037;28;20042;-60
2022/10/17 03:34:17;;;;;;;22.67;14.73;;;;;;;14.66;100.00;99561.94;5023273;28;20063;-61
2022/10/17 03:36:43;;;;;;;22.75;15.60;;;;;;;14.60;100.00;99565.97;4996211;28;20033;-61
2022/10/17 03:39:09;;;;;;;23.17;14.85;;;;;;;14.27;100.00;99523.72;5006652;28;20774;-60
2022/10/17 03:41:34;;;;;;;23.92;14.85;;;;;;;14.55;100.00;99563.78;4997885;28;20064;-60
2022/10/17 03:44:00;;;;;;;23.42;15.65;;;;;;;14.28;100.00;99532.41;5013728;28;20483;-60
2022/10/17 03:46:25;;;;;;;21.25;15.38;;;;;;;14.58;100.00;99575.78;5006662;28;20037;-60
2022/10/17 03:48:51;;;;;;;21.90;15.27;;;;;;;14.47;100.00;99568.09;5010876;28;20036;-60
2022/10/17 03:51:16;;;;;;;21.60;14.73;;;;;;;14.42;100.00;99572.00;5011100;28;20034;-60
2022/10/17 03:53:42;;;;;;;25.05;15.63;;;;;;;14.43;100.00;99570.19;5011838;28;20495;-60
2022/10/17 03:56:16;;;;;;;22.42;15.50;;;;;;;14.48;100.00;99577.63;4998374;28;20044;-61
2022/10/17 03:58:42;;;;;;;22.52;15.43;;;;;;;14.44;100.00;99574.47;5006119;28;20037;-61
2022/10/17 04:01:09;;;;;;;24.15;16.00;;;;;;;14.43;100.00;99575.41;5009010;28;20033;-60
2022/10/17 04:03:35;;;;;;;26.55;15.35;;;;;;;14.20;100.00;99536.56;5009110;28;20018;-60
2022/10/17 04:06:01;;;;;;;22.90;14.88;;;;;;;14.38;100.00;99572.41;5007952;28;20037;-61
2022/10/17 04:08:27;;;;;;;20.45;15.02;;;;;;;14.39;100.00;99572.25;5007310;28;20061;-60
2022/10/17 04:10:57;;;;;;;22.20;14.90;;;;;;;14.46;100.00;99580.38;5003870;28;20579;-62
2022/10/17 04:13:22;;;;;;;;;;;;;;;14.40;100.00;99583.53;5007934;28;20057;-60
2022/10/17 04:15:55;;;;;;;20.40;14.50;;;;;;;14.41;100.00;99587.81;5018602;28;20287;-61
2022/10/17 04:18:21;;;;;;;25.98;16.02;;;;;;;14.34;100.00;99584.97;5013178;28;20617;-60
2022/10/17 04:20:46;;;;;;;20.08;14.68;;;;;;;14.37;100.00;99587.28;5008605;28;20109;-60
2022/10/17 04:23:11;;;;;;;22.38;15.38;;;;;;;14.11;100.00;99554.91;5010340;28;20113;-60
2022/10/17 04:25:37;;;;;;;22.20;14.40;;;;;;;14.23;100.00;99559.00;5016564;28;20080;-60
2022/10/17 04:28:02;;;;;;;23.67;15.38;;;;;;;14.47;100.00;99604.72;5007710;28;20138;-58
2022/10/17 04:30:28;;;;;;;21.55;15.65;;;;;;;14.41;100.00;99609.56;5013727;28;20029;-60
2022/10/17 04:32:53;;;;;;;21.48;14.85;;;;;;;14.41;100.00;99601.72;5010294;28;20043;-60
2022/10/17 04:35:18;;;;;;;20.63;14.73;;;;;;;14.42;100.00;99602.56;5001616;28;20035;-60
2022/10/17 04:37:44;;;;;;;21.15;13.45;;;;;;;14.42;100.00;99603.38;5020046;28;20032;-60
2022/10/17 04:40:09;;;;;;;18.88;14.23;;;;;;;14.44;100.00;99603.25;5020760;28;20129;-59
2022/10/17 04:42:35;;;;;;;18.60;13.48;;;;;;;14.42;100.00;99598.16;5009621;28;20488;-59
2022/10/17 04:45:00;;;;;;;20.13;14.13;;;;;;;14.35;100.00;99607.53;4996421;28;20041;-60
2022/10/17 04:47:25;;;;;;;20.83;13.80;;;;;;;14.37;100.00;99610.03;5015699;28;20544;-61
2022/10/17 04:49:51;;;;;;;18.70;13.52;;;;;;;14.35;100.00;99610.16;5019238;28;20032;-60
2022/10/17 04:52:16;;;;;;;19.30;14.20;;;;;;;14.45;100.00;99614.53;5009752;28;20393;-60
2022/10/17 04:54:42;;;;;;;22.17;13.88;;;;;;;14.35;100.00;99599.69;5013205;28;20052;-60
2022/10/17 04:57:07;;;;;;;20.55;14.20;;;;;;;14.46;100.00;99611.78;5012335;28;20071;-60
2022/10/17 04:59:33;;;;;;;21.98;13.82;;;;;;;14.53;100.00;99610.22;5020694;28;20711;-60
2022/10/17 05:01:58;;;;;;;18.88;13.45;;;;;;;14.48;100.00;99615.06;5015810;28;20106;-61
2022/10/17 05:04:24;;;;;;;20.25;13.10;;;;;;;14.56;100.00;99615.16;5008723;28;20034;-61
2022/10/17 05:06:50;;;;;;;20.88;12.88;;;;;;;14.49;100.00;99610.66;5009278;28;20678;-61
2022/10/17 05:09:15;;;;;;;20.45;13.13;;;;;;;14.48;100.00;99629.94;5013292;28;20038;-61
2022/10/17 05:11:41;;;;;;;18.60;13.25;;;;;;;14.39;100.00;99629.81;5012372;28;20042;-61
2022/10/17 05:14:06;;;;;;;19.35;12.90;;;;;;;14.35;100.00;99638.13;5006995;28;20056;-60
2022/10/17 05:16:32;;;;;;;18.45;12.75;;;;;;;14.28;100.00;99621.34;4993216;28;20041;-60
2022/10/17 05:18:58;;;;;;;20.08;12.77;;;;;;;14.39;100.00;99639.47;5015241;28;20086;-60
2022/10/17 05:21:25;;;;;;;18.60;12.98;;;;;;;14.29;100.00;99639.53;5011839;28;20033;-61
2022/10/17 05:23:50;;;;;;;18.75;12.70;;;;;;;14.25;100.00;99635.53;5009756;28;20030;-59
2022/10/17 05:26:16;;;;;;;18.98;13.13;;;;;;;14.27;100.00;99643.22;5006918;28;20087;-60
2022/10/17 05:28:41;;;;;;;19.70;13.38;;;;;;;14.30;100.00;99645.56;5017171;28;20049;-59
2022/10/17 05:31:08;;;;;;;18.92;13.65;;;;;;;14.25;100.00;99637.31;4990080;28;20033;-61
2022/10/17 05:33:35;;;;;;;19.60;12.77;;;;;;;14.30;100.00;99642.97;5014221;28;20025;-61
2022/10/17 05:36:01;;;;;;;19.58;13.38;;;;;;;14.18;100.00;99643.13;4999070;28;20213;-60
2022/10/17 05:38:26;;;;;;;17.55;12.70;;;;;;;14.21;100.00;99644.63;5001684;28;20480;-60
2022/10/17 05:40:57;;;;;;;18.88;13.60;;;;;;;14.16;100.00;99634.59;5012553;28;20034;-59
2022/10/17 05:43:22;;;;;;;19.17;13.27;;;;;;;13.70;100.00;99564.84;5016442;28;20030;-59
2022/10/17 05:45:48;;;;;;;20.58;13.18;;;;;;;14.27;100.00;99638.81;5010041;28;20396;-60
2022/10/17 05:48:13;;;;;;;20.02;13.23;;;;;;;13.94;100.00;99601.75;5010055;28;20069;-60
2022/10/17 05:50:38;;;;;;;21.27;13.35;;;;;;;14.22;100.00;99638.44;5011722;28;20039;-59
2022/10/17 05:53:04;;;;;;;20.92;14.05;;;;;;;14.19;100.00;99642.16;5016227;28;20051;-59
2022/10/17 05:55:29;;;;;;;20.00;14.18;;;;;;;14.20;100.00;99642.97;5015445;28;20124;-60
2022/10/17 05:57:55;;;;;;;20.85;14.85;;;;;;;14.04;100.00;99626.09;5006742;28;20034;-59
2022/10/17 06:00:21;;;;;;;21.75;13.82;;;;;;;14.10;100.00;99632.56;5010716;28;20046;-60
2022/10/17 06:02:46;;;;;;;18.85;12.85;;;;;;;14.22;100.00;99654.16;5016658;28;20081;-61
2022/10/17 06:05:13;;;;;;;19.27;13.38;;;;;;;14.06;100.00;99625.16;5011440;28;20515;-59
2022/10/17 06:07:38;;;;;;;20.98;14.05;;;;;;;13.98;100.00;99620.59;5011281;28;20645;-59
2022/10/17 06:10:04;;;;;;;21.50;14.82;;;;;;;14.26;100.00;99671.19;5007164;28;20028;-59
2022/10/17 06:12:29;;;;;;;20.63;14.20;;;;;;;14.25;100.00;99659.06;5009522;28;20560;-59
2022/10/17 06:14:55;;;;;;;18.88;14.25;;;;;;;14.28;100.00;99666.63;5005489;28;20572;-60
2022/10/17 06:17:20;;;;;;;21.17;14.27;;;;;;;14.34;100.00;99673.91;5011410;28;20029;-61
2022/10/17 06:19:46;;;;;;;19.52;13.73;;;;;;;14.39;100.00;99674.31;5006148;28;20041;-60
2022/10/17 06:22:12;;;;;;;17.67;13.43;;;;;;;14.33;100.00;99672.28;5012923;28;20033;-60
2022/10/17 06:24:37;;;;;;;19.92;13.55;;;;;;;14.36;100.00;99676.38;5012529;28;20084;-60
2022/10/17 06:27:02;;;;;;;18.33;13.57;;;;;;;14.32;100.00;99675.84;5005665;28;20030;-59
2022/10/17 06:29:28;;;;;;;19.55;14.13;;;;;;;14.34;100.00;99673.91;5006545;28;20057;-60
2022/10/17 06:31:54;;;;;;;21.40;13.15;;;;;;;14.37;100.00;99685.91;5011483;28;20037;-59
2022/10/17 06:34:19;;;;;;;20.80;14.65;;;;;;;14.34;100.00;99687.00;5008780;28;20041;-60
2022/10/17 06:36:45;;;;;;;19.08;13.88;;;;;;;14.23;100.00;99685.38;5008858;28;20036;-60
2022/10/17 06:39:10;;;;;;;20.08;13.15;;;;;;;14.33;100.00;99693.22;5008394;28;20036;-60
2022/10/17 06:41:36;;;;;;;21.38;13.88;;;;;;;14.36;100.00;99687.66;5011648;28;20357;-61
2022/10/17 06:44:07;;;;;;;22.33;13.50;;;;;;;14.30;100.00;99677.78;5012519;28;20936;-59
2022/10/17 06:46:32;;;;;;;20.77;13.05;;;;;;;14.07;100.00;99650.31;5005948;28;20053;-59
2022/10/17 06:48:58;;;;;;;18.98;13.48;;;;;;;14.21;100.00;99670.78;5006920;28;20756;-59
2022/10/17 06:51:23;;;;;;;21.30;13.90;;;;;;;14.37;100.00;99702.41;5000115;28;20789;-59
2022/10/17 06:53:48;;;;;;;21.27;13.73;;;;;;;14.41;100.00;99703.78;5010774;28;20034;-60
2022/10/17 06:56:14;;;;;;;18.15;13.27;;;;;;;14.45;100.00;99706.94;5008116;28;20458;-60
2022/10/17 06:58:40;;;;;;;20.38;14.20;;;;;;;14.19;100.00;99670.94;5006881;28;20831;-57
2022/10/17 07:01:11;;;;;;;19.83;13.73;;;;;;;14.43;100.00;99719.34;5002756;28;20037;-60
2022/10/17 07:03:37;;;;;;;22.65;14.93;;;;;;;14.39;100.00;99705.72;5019182;28;20618;-60
2022/10/17 07:06:03;;;;;;;23.77;14.90;;;;;;;14.48;100.00;99719.72;5013235;28;20037;-59
2022/10/17 07:08:28;;;;;;;20.10;14.02;;;;;;;14.06;100.00;99680.88;5008845;28;20224;-60
2022/10/17 07:10:55;;;;;;;20.35;14.18;;;;;;;14.39;100.00;99723.19;5009124;28;20555;-60
2022/10/17 07:13:20;;;;;;;19.58;13.65;;;;;;;14.36;100.00;99724.28;5015394;28;20517;-60
2022/10/17 07:15:46;;;;;;;19.65;14.27;;;;;;;14.20;100.00;99690.91;5014431;28;20034;-58
2022/10/17 07:18:11;;;;;;;19.05;13.85;;;;;;;14.34;100.00;99722.81;5006761;28;21144;-60
2022/10/17 07:20:37;;;;;;;20.35;14.00;;;;;;;13.99;100.00;99687.63;5011505;28;20080;-59
2022/10/17 07:23:03;;;;;;;21.25;14.63;;;;;;;14.19;100.00;99701.50;5016834;28;20036;-60
2022/10/17 07:25:28;;;;;;;21.10;14.82;;;;;;;14.33;100.00;99726.38;4999834;28;20037;-60
2022/10/17 07:27:54;;;;;;;22.48;13.85;;;;;;;14.27;100.00;99713.88;5006877;28;20042;-60
2022/10/17 07:30:19;;;;;;;19.08;13.63;;;;;;;14.44;100.00;99728.84;5003842;28;20116;-61
2022/10/17 07:32:45;;;;;;;21.60;13.90;;;;;;;14.40;100.00;99730.91;5010929;28;20614;-60
2022/10/17 07:35:11;;;;;;;19.50;14.48;;;;;;;14.38;100.00;99726.78;5011132;28;20043;-60
2022/10/17 07:37:36;;;;;;;24.55;15.07;;;;;;;14.30;100.00;99730.09;5022378;28;20447;-60
2022/10/17 07:40:03;;;;;;;19.65;14.52;;;;;;;14.34;100.00;99735.88;5036039;28;20033;-60
2022/10/17 07:42:28;;;;;;;22.27;14.98;;;;;;;14.13;100.00;99702.88;4999614;28;20044;-60
2022/10/17 07:44:54;;;;;;;21.98;14.63;;;;;;;14.46;100.00;99739.19;5006790;28;20038;-60
2022/10/17 07:47:20;;;;;;;22.58;14.82;;;;;;;14.40;100.00;99748.38;5009402;28;20095;-59
2022/10/17 07:49:45;;;;;;;20.20;14.23;;;;;;;14.41;100.00;99753.47;5012739;28;20040;-59
2022/10/17 07:52:12;;;;;;;22.17;14.45;;;;;;;14.55;100.00;99743.56;5013245;28;20063;-60
2022/10/17 07:54:37;;;;;;;21.17;14.50;;;;;;;14.50;100.00;99756.22;5016795;28;20025;-61
2022/10/17 07:57:03;;;;;;;21.48;14.02;;;;;;;14.55;100.00;99741.75;5012582;28;20086;-60
2022/10/17 07:59:28;;;;;;;20.10;14.20;;;;;;;14.39;100.00;99710.13;5007884;28;20113;-59
2022/10/17 08:01:56;;;;;;;20.75;15.02;;;;;;;14.70;100.00;99754.41;5013985;28;20043;-59
2022/10/17 08:04:22;;;;;;;24.45;15.25;;;;;;;14.69;100.00;99750.94;5006349;28;20084;-59
2022/10/17 08:06:48;;;;;;;21.58;15.50;;;;;;;14.71;100.00;99758.66;5011250;28;20751;-60
2022/10/17 08:09:13;;;;;;;21.02;15.18;;;;;;;14.70;100.00;99760.47;5012863;28;20112;-60
2022/10/17 08:11:39;;;;;;;21.95;15.40;;;;;;;14.74;100.00;99753.97;5011836;28;20041;-57
2022/10/17 08:14:04;;;;;;;21.67;13.93;;;;;;;14.60;100.00;99730.88;5009794;28;20045;-60
2022/10/17 08:16:30;;;;;;;21.70;14.05;;;;;;;14.79;100.00;99762.22;5000753;28;20041;-59
2022/10/17 08:18:55;;;;;;;21.75;15.18;;;;;;;14.74;100.00;99767.06;5014489;28;20045;-58
2022/10/17 08:21:20;;;;;;;22.98;14.50;;;;;;;14.83;100.00;99759.31;5008461;28;20068;-60
2022/10/17 08:23:46;;;;;;;21.92;14.70;;;;;;;14.92;100.00;99766.31;4996216;28;20037;-59
2022/10/17 08:26:12;;;;;;;25.45;16.15;;;;;;;14.96;100.00;99763.25;5039861;28;20038;-60
2022/10/17 08:28:39;;;;;;;21.10;14.75;;;;;;;15.00;100.00;99763.78;5009571;28;20036;-60
2022/10/17 08:31:09;;;;;;;20.55;14.23;;;;;;;15.06;100.00;99767.59;5004280;28;20033;-59
2022/10/17 08:33:35;;;;;;;20.33;14.07;;;;;;;14.82;100.00;99726.25;5018167;28;20801;-58
2022/10/17 08:36:01;;;;;;;23.52;14.48;;;;;;;15.01;100.00;99764.63;5010494;28;20026;-59
2022/10/17 08:38:28;;;;;;;20.52;15.10;;;;;;;15.03;100.00;99763.50;4994614;28;20045;-59
2022/10/17 08:40:56;;;;;;;21.98;15.82;;;;;;;15.03;100.00;99750.41;4997753;28;20076;-59
2022/10/17 08:43:38;;;;;;;22.33;15.23;;;;;;;15.10;100.00;99754.09;5003636;28;20109;-58
2022/10/17 08:46:05;;;;;;;19.83;14.30;;;;;;;14.94;100.00;99743.41;4995793;28;20168;-60
2022/10/17 08:48:35;;;;;;;21.10;14.18;;;;;;;15.02;100.00;99755.78;5001263;28;20504;-60
2022/10/17 08:51:08;;;;;;;20.52;14.43;;;;;;;14.82;100.00;99713.16;5000882;28;20136;-59
2022/10/17 08:53:42;;;;;;;22.67;15.10;;;;;;;15.14;100.00;99757.25;4994969;28;20042;-60
2022/10/17 08:56:19;;;;;;;21.45;15.40;;;;;;;15.12;100.00;99743.47;5003738;28;20032;-60
2022/10/17 08:58:44;;;;;;;22.00;13.98;;;;;;;15.23;100.00;99752.94;5017448;28;20034;-59
2022/10/17 09:01:36;;;;;;;21.55;14.25;;;;;;;15.25;100.00;99749.19;5002181;28;20032;-59
2022/10/17 09:04:26;;;;;;;20.58;14.85;;;;;;;15.34;100.00;99752.72;5010158;28;20138;-60
2022/10/17 09:07:03;;;;;;;19.95;14.43;;;;;;;15.39;100.00;99753.09;5001812;28;20032;-60
2022/10/17 09:09:31;;;;;;;21.63;14.32;;;;;;;15.44;100.00;99758.72;5008401;28;20245;-59
2022/10/17 09:12:17;;;;;;;22.25;15.77;;;;;;;15.43;100.00;99758.88;4999193;28;20088;-61
2022/10/17 09:15:01;;;;;;;23.02;14.50;;;;;;;15.46;100.00;99758.56;4990379;28;20042;-60
2022/10/17 09:17:37;;;;;;;19.95;14.63;;;;;;;15.41;100.00;99745.09;5002061;28;20072;-59
2022/10/17 09:20:09;;;;;;;19.98;14.05;;;;;;;15.48;100.00;99756.59;5009014;28;20034;-59
2022/10/17 09:22:50;;;;;;;20.50;14.13;;;;;;;15.58;100.00;99754.75;5001005;28;20108;-58
2022/10/17 09:25:17;;;;;;;18.77;13.40;;;;;;;15.57;100.00;99753.13;5008943;28;20033;-60
2022/10/17 09:28:17;;;;;;;19.92;12.88;;;;;;;15.48;100.00;99725.16;5011498;28;20025;-62
2022/10/17 09:30:49;;;;;;;20.02;14.13;;;;;;;15.60;100.00;99741.50;5006397;28;20068;-59
2022/10/17 09:33:20;;;;;;;18.67;13.55;;;;;;;15.84;100.00;99762.72;5004961;28;21349;-60
2022/10/17 09:35:46;;;;;;;17.60;12.77;;;;;;;15.88;100.00;99756.22;5012031;28;20119;-58
2022/10/17 09:38:18;;;;;;;15.98;12.32;;;;;;;15.70;99.58;99716.06;5004619;28;20534;-60
2022/10/17 09:40:45;;;;;;;16.85;12.10;;;;;;;15.95;97.82;99766.91;5005642;28;20037;-59
2022/10/17 09:43:14;;;;;;;17.83;12.20;;;;;;;15.91;98.46;99726.25;4988024;28;20029;-60
2022/10/17 09:45:46;;;;;;;20.23;12.82;;;;;;;16.04;98.65;99758.13;5019343;28;20137;-60
2022/10/17 09:48:39;;;;;;;21.00;13.18;;;;;;;16.06;97.44;99758.84;5010750;28;20034;-58
2022/10/17 09:51:05;;;;;;;16.40;11.70;;;;;;;15.93;95.53;99738.25;4977769;28;20038;-59
2022/10/17 09:53:37;;;;;;;17.55;12.35;;;;;;;16.18;96.46;99753.34;4949218;28;20565;-58
2022/10/17 09:56:08;;;;;;;18.42;12.57;;;;;;;16.14;94.59;99752.81;5000759;28;20025;-60
2022/10/17 09:58:45;;;;;;;17.85;13.38;;;;;;;16.29;94.18;99753.91;5003532;28;20061;-60
2022/10/17 10:01:30;;;;;;;17.02;12.18;;;;;;;16.40;92.48;99746.75;5008736;28;20964;-58
2022/10/17 10:04:15;;;;;;;19.83;12.68;;;;;;;16.49;94.01;99751.91;5004119;28;20298;-58
2022/10/17 10:07:01;;;;;;;15.65;11.40;;;;;;;16.53;92.26;99747.97;5004166;28;20025;-58
2022/10/17 10:09:34;;;;;;;19.35;11.73;;;;;;;16.63;91.62;99749.66;5001358;28;20131;-58
2022/10/17 10:12:03;;;;;;;17.77;12.68;;;;;;;16.68;90.80;99747.41;5010300;28;20222;-58
2022/10/17 10:14:34;;;;;;;18.10;12.13;;;;;;;16.80;91.62;99740.09;4963600;28;20083;-60
2022/10/17 10:17:02;;;;;;;17.08;12.07;;;;;;;16.86;93.06;99749.97;5003246;28;20030;-60
2022/10/17 10:19:32;;;;;;;17.42;12.00;;;;;;;16.85;94.07;99745.72;4978157;28;20037;-58
2022/10/17 10:22:13;;;;;;;19.98;13.10;;;;;;;16.93;94.46;99747.56;5008458;28;20116;-59
2022/10/17 10:24:38;;;;;;;16.90;12.20;;;;;;;17.03;95.19;99738.56;5009363;28;20076;-58
2022/10/17 10:27:03;;;;;;;20.77;12.80;;;;;;;17.05;94.85;99741.03;5016788;28;20455;-58
2022/10/17 10:29:35;;;;;;;18.88;13.85;;;;;;;17.07;94.59;99742.53;5009451;28;20026;-58
2022/10/17 10:32:12;;;;;;;18.55;13.48;;;;;;;17.14;92.94;99745.34;5006784;28;20048;-59
2022/10/17 10:34:47;;;;;;;17.65;12.52;;;;;;;17.14;93.98;99736.63;4999175;28;20391;-58
2022/10/17 10:37:21;;;;;;;16.38;12.77;;;;;;;17.00;92.36;99696.03;5017141;28;20152;-58
2022/10/17 10:39:54;;;;;;;24.55;14.95;;;;;;;17.34;89.65;99740.63;5045830;28;20041;-58
2022/10/17 10:42:31;;;;;;;21.65;15.13;;;;;;;17.20;90.01;99713.16;5004469;28;20038;-58
2022/10/17 10:45:20;;;;;;;21.23;15.43;;;;;;;17.45;88.27;99736.84;5012245;28;20185;-58
2022/10/17 10:47:49;;;;;;;;;;;;;;;17.57;88.35;99738.19;5015395;28;20032;-58
2022/10/17 10:50:33;;;;;;;25.63;16.63;;;;;;;17.54;88.49;99732.44;5013387;28;20058;-58
2022/10/17 10:53:09;;;;;;;25.27;15.80;;;;;;;17.43;88.36;99702.88;5012719;28;20068;-58
2022/10/17 10:56:03;;;;;;;25.20;18.27;;;;;;;17.58;87.07;99726.69;5010559;28;20033;-58
2022/10/17 10:58:52;;;;;;;32.00;17.58;;;;;;;17.73;88.30;99708.47;4991465;28;20042;-58
2022/10/17 11:01:26;;;;;;;;;;;;;;;17.80;86.57;99729.69;5013451;28;20038;-58
2022/10/17 11:03:54;;;;;;;25.65;17.55;;;;;;;17.68;88.05;99687.09;5015671;28;19914;-58
2022/10/17 11:06:26;;;;;;;27.27;17.65;;;;;;;17.96;88.57;99707.81;5010652;28;20021;-58
2022/10/17 11:09:03;;;;;;;25.52;17.35;;;;;;;17.78;86.79;99681.66;5010921;28;20030;-58
2022/10/17 11:11:38;;;;;;;28.48;16.85;;;;;;;18.03;87.65;99711.44;5007199;28;20025;-58
2022/10/17 11:14:22;;;;;;;24.15;17.83;;;;;;;18.16;87.62;99714.41;5036832;28;20440;-59
2022/10/17 11:17:31;;;;;;;24.63;16.65;;;;;;;18.23;88.54;99719.78;5015489;28;20079;-59
2022/10/17 11:20:08;;;;;;;26.30;18.03;;;;;;;17.94;89.57;99641.38;4982262;28;20050;-58
2022/10/17 11:22:39;;;;;;;26.98;16.92;;;;;;;18.51;87.06;99709.72;5008473;28;20133;-59
2022/10/17 11:25:12;;;;;;;27.85;18.13;;;;;;;18.41;85.92;99683.56;5013239;28;20041;-58